createdAt,value
2024-03-09T00:03:20.142Z,65.80
2024-03-09T00:06:43.993Z,61.30
2024-03-09T00:10:08.083Z,60.90
2024-03-09T00:13:40.335Z,64.10
2024-03-09T00:17:04.589Z,64.60
2024-03-09T00:20:34.807Z,72.80
2024-03-09T00:24:05.001Z,75.20
2024-03-09T00:27:35.179Z,72.40
2024-03-09T00:31:05.351Z,72.90
2024-03-09T00:34:29.373Z,74.00
2024-03-09T00:37:59.532Z,71.40
2024-03-09T00:41:29.860Z,72.80
2024-03-09T00:44:59.860Z,78.80
2024-03-09T00:48:29.597Z,72.50
2024-03-09T00:51:59.643Z,66.90
2024-03-09T00:55:29.932Z,61.50
2024-03-09T00:59:01.333Z,67.30
2024-03-09T01:02:32.966Z,62.90
2024-03-09T01:06:03.074Z,60.40
2024-03-09T01:09:33.539Z,61.80
2024-03-09T01:12:57.681Z,68.70
2024-03-09T01:16:21.460Z,48.70
2024-03-09T01:19:47.313Z,71.00
2024-03-09T01:23:17.204Z,68.60
2024-03-09T01:26:40.945Z,68.80
2024-03-09T01:30:11.844Z,66.00
2024-03-09T01:33:42.048Z,61.90
2024-03-09T01:37:11.889Z,64.70
2024-03-09T01:40:40.684Z,62.70
2024-03-09T01:44:04.614Z,61.00
2024-03-09T01:47:31.227Z,62.10
2024-03-09T01:50:58.929Z,67.40
2024-03-09T01:54:27.198Z,66.20
2024-03-09T01:57:55.583Z,66.90
2024-03-09T02:01:23.869Z,66.30
2024-03-09T02:04:52.749Z,65.50
2024-03-09T02:08:20.526Z,59.10
2024-03-09T02:11:48.834Z,55.40
2024-03-09T02:15:12.990Z,57.20
2024-03-09T02:18:37.823Z,56.60
2024-03-09T02:22:01.768Z,54.10
2024-03-09T02:25:30.040Z,51.60
2024-03-09T02:28:54.154Z,49.50
2024-03-09T02:32:20.511Z,46.20
2024-03-09T02:35:49.267Z,51.50
2024-03-09T02:39:17.718Z,52.40
2024-03-09T02:42:45.955Z,50.70
2024-03-09T02:46:09.681Z,51.70
2024-03-09T02:49:36.421Z,51.60
2024-03-09T02:53:05.195Z,50.30
2024-03-09T02:56:33.690Z,55.10
2024-03-09T03:00:01.965Z,56.30
2024-03-09T03:03:30.683Z,59.60
2024-03-09T03:06:59.102Z,62.30
2024-03-09T03:10:27.235Z,61.80
2024-03-09T03:13:55.866Z,60.30
2024-03-09T03:17:19.852Z,55.50
2024-03-09T03:20:43.438Z,50.00
2024-03-09T03:24:08.893Z,47.30
2024-03-09T03:27:37.130Z,44.90
2024-03-09T03:31:00.993Z,45.60
2024-03-09T03:34:29.264Z,51.70
2024-03-09T03:37:55.908Z,54.60
2024-03-09T03:41:24.827Z,56.40
2024-03-09T03:44:53.337Z,55.50
2024-03-09T03:48:17.388Z,58.10
2024-03-09T03:51:42.845Z,57.90
2024-03-09T03:55:11.620Z,52.70
2024-03-09T03:58:40.493Z,49.50
2024-03-09T04:02:09.112Z,45.30
2024-03-09T04:05:37.229Z,46.00
2024-03-09T04:09:05.146Z,47.30
2024-03-09T04:12:29.145Z,51.10
2024-03-09T04:15:52.779Z,54.90
2024-03-09T04:19:16.788Z,59.90
2024-03-09T04:22:52.777Z,70.10
2024-03-09T04:26:28.722Z,86.50
2024-03-09T04:30:04.389Z,76.30
2024-03-09T04:33:40.532Z,76.00
2024-03-09T04:37:16.665Z,74.20
2024-03-09T04:40:52.819Z,68.50
2024-03-09T04:44:30.985Z,63.60
2024-03-09T04:48:07.300Z,59.40
2024-03-09T04:51:43.479Z,53.80
2024-03-09T04:55:19.616Z,54.00
2024-03-09T04:58:56.669Z,54.90
2024-03-09T05:02:32.372Z,57.30
2024-03-09T05:06:08.547Z,59.80
2024-03-09T05:09:44.501Z,58.60
2024-03-09T05:13:20.242Z,55.70
2024-03-09T05:16:56.523Z,52.00
2024-03-09T05:20:32.501Z,55.90
2024-03-09T05:24:08.767Z,49.40
2024-03-09T05:27:44.838Z,49.40
2024-03-09T05:31:20.627Z,50.70
2024-03-09T05:34:57.066Z,57.80
2024-03-09T05:38:33.269Z,56.70
2024-03-09T05:42:09.205Z,53.80
2024-03-09T05:45:45.263Z,56.50
2024-03-09T05:49:21.303Z,56.10
2024-03-09T05:52:57.528Z,56.50
2024-03-09T05:56:27.714Z,53.90
2024-03-09T05:59:57.689Z,52.30
2024-03-09T06:03:27.772Z,55.60
2024-03-09T06:06:57.709Z,53.40
2024-03-09T06:10:27.456Z,55.10
2024-03-09T06:13:57.893Z,49.80
2024-03-09T06:17:27.913Z,51.30
2024-03-09T06:20:57.968Z,51.60
2024-03-09T06:24:28.118Z,50.90
2024-03-09T06:27:58.400Z,51.50
2024-03-09T06:31:28.540Z,74.40
2024-03-09T06:34:58.943Z,57.80
2024-03-09T06:38:28.970Z,54.90
2024-03-09T06:41:58.895Z,51.70
2024-03-09T06:45:28.771Z,47.60
2024-03-09T06:48:58.929Z,46.90
2024-03-09T06:52:29.154Z,50.30
2024-03-09T06:55:59.246Z,48.70
2024-03-09T06:59:29.325Z,49.20
2024-03-09T07:02:59.760Z,53.40
2024-03-09T07:06:29.450Z,46.90
2024-03-09T07:09:59.870Z,40.40
2024-03-09T07:13:29.992Z,40.20
2024-03-09T07:17:00.454Z,36.50
2024-03-09T07:20:30.841Z,35.30
2024-03-09T07:24:01.284Z,33.00
2024-03-09T07:27:31.450Z,23.70
2024-03-09T07:31:01.496Z,21.30
2024-03-09T07:34:31.471Z,19.40
2024-03-09T07:38:02.463Z,19.50
2024-03-09T07:41:27.177Z,20.70
2024-03-09T07:44:51.239Z,20.40
2024-03-09T07:48:15.356Z,19.90
2024-03-09T07:51:39.305Z,20.20
2024-03-09T07:55:03.386Z,18.90
2024-03-09T07:58:27.909Z,19.60
2024-03-09T08:01:52.083Z,21.20
2024-03-09T08:05:16.242Z,19.00
2024-03-09T08:08:41.668Z,19.50
2024-03-09T08:12:05.332Z,19.50
2024-03-09T08:15:29.181Z,19.40
2024-03-09T08:18:59.356Z,19.80
2024-03-09T08:22:29.169Z,19.00
2024-03-09T08:25:59.402Z,18.60
2024-03-09T08:29:29.126Z,18.50
2024-03-09T08:32:59.017Z,15.50
2024-03-09T08:36:28.964Z,16.20
2024-03-09T08:39:58.868Z,16.70
2024-03-09T08:43:24.462Z,16.20
2024-03-09T08:46:54.709Z,16.00
2024-03-09T08:50:24.807Z,19.90
2024-03-09T08:53:55.775Z,16.10
2024-03-09T08:57:25.804Z,18.10
2024-03-09T09:00:55.665Z,18.60
2024-03-09T09:04:25.966Z,19.60
2024-03-09T09:07:56.101Z,16.80
2024-03-09T09:11:26.385Z,16.10
2024-03-09T09:14:56.201Z,17.90
2024-03-09T09:18:26.449Z,18.30
2024-03-09T09:21:56.600Z,19.00
2024-03-09T09:25:29.778Z,18.60
2024-03-09T09:29:02.338Z,19.80
2024-03-09T09:32:32.399Z,20.90
2024-03-09T09:36:02.492Z,18.30
2024-03-09T09:39:33.234Z,19.20
2024-03-09T09:42:56.878Z,18.50
2024-03-09T09:46:20.792Z,17.30
2024-03-09T09:49:47.882Z,17.80
2024-03-09T09:53:17.818Z,16.80
2024-03-09T09:56:48.034Z,17.40
2024-03-09T10:00:18.125Z,16.70
2024-03-09T10:03:48.382Z,16.30
2024-03-09T10:07:18.429Z,17.10
2024-03-09T10:10:48.789Z,18.20
2024-03-09T10:14:18.890Z,17.60
2024-03-09T10:17:49.199Z,16.30
2024-03-09T10:21:19.423Z,16.60
2024-03-09T10:24:49.714Z,17.90
2024-03-09T10:28:19.939Z,18.20
2024-03-09T10:31:49.914Z,18.20
2024-03-09T10:35:19.920Z,19.00
2024-03-09T10:38:49.930Z,18.60
2024-03-09T10:42:20.148Z,18.80
2024-03-09T10:45:49.318Z,16.80
2024-03-09T10:49:17.878Z,16.80
2024-03-09T10:52:42.005Z,16.00
2024-03-09T10:56:06.384Z,17.30
2024-03-09T11:02:47.925Z,13.80
2024-03-09T11:06:18.028Z,15.30
2024-03-09T11:09:51.199Z,14.80
2024-03-09T11:13:16.635Z,15.50
2024-03-09T11:16:46.736Z,15.80
2024-03-09T11:20:16.766Z,14.80
2024-03-09T11:23:46.835Z,14.30
2024-03-09T11:27:16.509Z,13.70
2024-03-09T11:30:44.757Z,13.70
2024-03-09T11:34:13.132Z,14.10
2024-03-09T11:37:41.921Z,13.40
2024-03-09T11:41:11.555Z,14.50
2024-03-09T11:44:41.744Z,13.00
2024-03-09T11:48:05.722Z,11.90
2024-03-09T11:51:30.402Z,12.00
2024-03-09T11:54:54.220Z,11.70
2024-03-09T11:58:21.675Z,12.10
2024-03-09T12:01:51.282Z,11.70
2024-03-09T12:05:19.930Z,11.70
2024-03-09T12:08:48.398Z,11.60
2024-03-09T12:12:17.250Z,10.50
2024-03-09T12:15:47.265Z,12.40
2024-03-09T12:19:17.587Z,11.60
2024-03-09T12:22:47.609Z,11.70
2024-03-09T12:26:17.803Z,12.10
2024-03-09T12:29:47.750Z,11.60
2024-03-09T12:33:17.981Z,11.50
2024-03-09T12:36:47.647Z,12.30
2024-03-09T12:40:17.730Z,15.40
2024-03-09T12:43:47.951Z,12.20
2024-03-09T12:47:18.196Z,12.80
2024-03-09T12:50:48.066Z,11.60
2024-03-09T12:54:18.256Z,11.70
2024-03-09T12:57:48.237Z,12.40
2024-03-09T13:01:18.044Z,12.30
2024-03-09T13:04:48.235Z,11.10
2024-03-09T13:08:18.363Z,11.60
2024-03-09T13:11:48.522Z,12.80
2024-03-09T13:15:18.440Z,13.00
2024-03-09T13:18:48.739Z,12.80
2024-03-09T13:22:18.607Z,12.20
2024-03-09T13:25:48.920Z,13.10
2024-03-09T13:29:18.985Z,13.10
2024-03-09T13:32:48.963Z,13.10
2024-03-09T13:36:19.025Z,13.30
2024-03-09T13:39:49.226Z,11.80
2024-03-09T13:43:19.498Z,12.00
2024-03-09T13:46:49.480Z,12.20
2024-03-09T13:50:19.770Z,12.40
2024-03-09T13:53:49.646Z,11.20
2024-03-09T13:57:19.601Z,11.10
2024-03-09T14:00:49.544Z,12.20
2024-03-09T14:04:21.848Z,12.60
2024-03-09T14:07:53.322Z,11.00
2024-03-09T14:11:23.721Z,11.10
2024-03-09T14:14:53.412Z,12.30
2024-03-09T14:18:24.043Z,11.10
2024-03-09T14:21:53.872Z,10.70
2024-03-09T14:25:24.086Z,15.30
2024-03-09T14:28:53.549Z,11.70
2024-03-09T14:32:23.352Z,12.30
2024-03-09T14:35:53.628Z,12.30
2024-03-09T14:39:23.540Z,12.60
2024-03-09T14:42:53.774Z,12.80
2024-03-09T14:46:23.368Z,12.80
2024-03-09T14:49:53.607Z,13.50
2024-03-09T14:53:23.652Z,11.20
2024-03-09T14:56:53.799Z,9.70
2024-03-09T15:00:23.743Z,9.60
2024-03-09T15:03:53.809Z,10.00
2024-03-09T15:07:23.714Z,10.70
2024-03-09T15:10:53.806Z,10.50
2024-03-09T15:14:24.049Z,9.20
2024-03-09T15:17:53.882Z,9.30
2024-03-09T15:21:24.341Z,8.80
2024-03-09T15:24:54.333Z,10.10
2024-03-09T15:28:24.443Z,7.40
2024-03-09T15:31:54.500Z,7.70
2024-03-09T15:35:24.795Z,6.70
2024-03-09T15:38:54.989Z,7.10
2024-03-09T15:42:24.732Z,7.10
2024-03-09T15:45:54.615Z,6.80
2024-03-09T15:49:18.332Z,5.80
2024-03-09T15:52:48.500Z,6.20
2024-03-09T15:56:18.543Z,7.20
2024-03-09T15:59:42.587Z,6.70
2024-03-09T16:03:12.740Z,7.50
2024-03-09T16:06:42.830Z,7.00
2024-03-09T16:10:12.925Z,7.80
2024-03-09T16:13:43.178Z,8.30
2024-03-09T16:17:13.231Z,9.70
2024-03-09T16:20:43.255Z,9.50
2024-03-09T16:24:13.301Z,12.20
2024-03-09T16:27:43.080Z,12.40
2024-03-09T16:31:13.368Z,13.30
2024-03-09T16:34:43.188Z,12.20
2024-03-09T16:38:13.119Z,12.70
2024-03-09T16:41:43.279Z,13.20
2024-03-09T16:45:13.014Z,15.10
2024-03-09T16:48:43.152Z,12.40
2024-03-09T16:52:12.876Z,11.80
2024-03-09T16:55:42.931Z,11.10
2024-03-09T16:59:12.726Z,11.60
2024-03-09T17:02:42.844Z,12.60
2024-03-09T17:06:12.745Z,13.90
2024-03-09T17:09:42.930Z,14.60
2024-03-09T17:13:12.804Z,15.20
2024-03-09T17:16:42.897Z,17.80
2024-03-09T17:20:13.182Z,19.00
2024-03-09T17:23:43.625Z,19.10
2024-03-09T17:27:13.593Z,17.60
2024-03-09T17:30:43.597Z,18.20
2024-03-09T17:34:13.929Z,16.90
2024-03-09T17:37:43.973Z,17.60
2024-03-09T17:41:13.885Z,17.00
2024-03-09T17:44:43.832Z,16.80
2024-03-09T17:48:13.981Z,17.20
2024-03-09T17:51:44.623Z,16.90
2024-03-09T17:55:14.731Z,16.30
2024-03-09T17:58:45.169Z,17.00
2024-03-09T18:02:15.201Z,16.40
2024-03-09T18:05:45.191Z,17.40
2024-03-09T18:09:15.319Z,18.00
2024-03-09T18:12:45.470Z,18.80
2024-03-09T18:16:15.288Z,18.30
2024-03-09T18:19:45.302Z,16.10
2024-03-09T18:23:15.074Z,16.50
2024-03-09T18:26:47.541Z,16.20
2024-03-09T18:30:17.105Z,16.50
2024-03-09T18:33:47.036Z,15.90
2024-03-09T18:37:17.253Z,15.70
2024-03-09T18:40:47.039Z,15.90
2024-03-09T18:44:17.409Z,14.30
2024-03-09T18:47:47.755Z,13.00
2024-03-09T18:51:17.784Z,13.20
2024-03-09T18:54:47.370Z,12.60
2024-03-09T18:58:17.087Z,11.20
2024-03-09T19:01:47.294Z,11.60
2024-03-09T19:05:17.279Z,12.40
2024-03-09T19:08:47.295Z,11.40
2024-03-09T19:12:17.146Z,12.60
2024-03-09T19:15:46.988Z,11.40
2024-03-09T19:19:17.227Z,12.00
2024-03-09T19:22:47.268Z,12.20
2024-03-09T19:26:17.269Z,11.70
2024-03-09T19:29:47.536Z,13.20
2024-03-09T19:33:17.562Z,12.60
2024-03-09T19:36:47.515Z,14.60
2024-03-09T19:40:17.675Z,14.90
2024-03-09T19:43:48.170Z,15.30
2024-03-09T19:47:18.188Z,16.40
2024-03-09T19:50:48.565Z,19.30
2024-03-09T19:54:18.502Z,24.40
2024-03-09T19:57:48.730Z,20.40
2024-03-09T20:01:19.090Z,20.10
2024-03-09T20:04:49.081Z,22.70
2024-03-09T20:08:19.821Z,21.80
2024-03-09T20:11:49.874Z,21.70
2024-03-09T20:15:19.502Z,21.00
2024-03-09T20:18:46.231Z,19.70
2024-03-09T20:22:16.280Z,20.30
2024-03-09T20:25:40.456Z,21.10
2024-03-09T20:29:10.855Z,19.10
2024-03-09T20:32:39.463Z,18.70
2024-03-09T20:36:09.015Z,16.60
2024-03-09T20:39:37.308Z,16.00
2024-03-09T20:43:05.843Z,16.50
2024-03-09T20:46:35.249Z,16.90
2024-03-09T20:50:05.584Z,16.80
2024-03-09T20:53:29.513Z,18.80
2024-03-09T20:56:59.618Z,20.40
2024-03-09T21:00:29.467Z,20.30
2024-03-09T21:03:57.000Z,20.40
2024-03-09T21:07:27.192Z,21.40
2024-03-09T21:10:51.296Z,22.30
2024-03-09T21:14:18.280Z,22.20
2024-03-09T21:17:47.140Z,22.40
2024-03-09T21:21:17.162Z,25.00
2024-03-09T21:24:44.900Z,23.60
2024-03-09T21:28:15.186Z,24.40
2024-03-09T21:31:44.432Z,24.10
2024-03-09T21:35:12.971Z,25.80
2024-03-09T21:38:36.836Z,26.80
2024-03-09T21:42:06.845Z,27.50
2024-03-09T21:45:35.510Z,26.00
2024-03-09T21:49:06.047Z,29.90
2024-03-09T21:52:35.709Z,33.50
2024-03-09T21:55:59.760Z,45.00
2024-03-09T21:59:29.563Z,69.90
2024-03-09T22:02:53.884Z,77.70
2024-03-09T22:06:23.834Z,71.40
2024-03-09T22:09:53.799Z,77.70
2024-03-09T22:13:22.477Z,79.10
2024-03-09T22:16:52.277Z,78.50
2024-03-09T22:20:22.614Z,82.30
2024-03-09T22:23:52.527Z,83.90
2024-03-09T22:27:21.037Z,85.80
2024-03-09T22:30:50.167Z,89.50
2024-03-09T22:34:19.216Z,85.70
2024-03-09T22:37:47.936Z,87.20
2024-03-09T22:41:11.952Z,86.80
2024-03-09T22:44:41.376Z,98.20
2024-03-09T22:48:10.449Z,103.50
2024-03-09T22:51:39.260Z,151.00
2024-03-09T22:55:07.923Z,241.90
2024-03-09T22:58:32.163Z,255.90
2024-03-09T23:02:01.990Z,260.80
2024-03-09T23:05:30.835Z,228.20
2024-03-09T23:09:01.038Z,161.70
2024-03-09T23:12:24.924Z,143.80
2024-03-09T23:15:51.571Z,132.80
2024-03-09T23:19:20.624Z,114.90
2024-03-09T23:22:48.741Z,117.10
2024-03-09T23:26:12.698Z,112.40
2024-03-09T23:29:41.015Z,103.20
2024-03-09T23:33:10.227Z,101.40
2024-03-09T23:36:37.849Z,103.10
2024-03-09T23:40:06.227Z,99.00
2024-03-09T23:43:35.671Z,106.20
2024-03-09T23:47:04.216Z,104.10
2024-03-09T23:50:32.945Z,105.60
2024-03-09T23:54:02.875Z,107.60
2024-03-09T23:57:33.069Z,104.40
